Time;durP1;ratioP1;P1;durP2;ratioP2;P2;SDS_P1;SDS_P2;PMS_P1;PMS_P2;Temp;Humidity;BMP_temperature;BMP_pressure;BME280_temperature;BME280_humidity;BME280_pressure;Samples;Min_cycle;Max_cycle;Signal;HPM_P1;HPM_P2
2022/01/08 00:00:58;;;;;;;2.22;1.25;;;;;;;14.23;73.03;101146.34;5088682;28;20044;-74
2022/01/08 00:03:26;;;;;;;6.15;1.88;;;;;;;14.26;73.05;101140.16;5087552;28;20739;-75
2022/01/08 00:05:56;;;;;;;2.85;1.15;;;;;;;14.26;72.98;101153.44;5089083;28;20141;-75
2022/01/08 00:08:25;;;;;;;2.50;1.35;;;;;;;14.27;72.98;101149.91;5089002;28;20044;-74
2022/01/08 00:10:54;;;;;;;4.50;1.63;;;;;;;14.26;72.91;101150.78;5088675;28;20111;-74
2022/01/08 00:13:21;;;;;;;1.85;0.90;;;;;;;14.22;72.96;101141.91;5087227;28;20576;-75
2022/01/08 00:15:49;;;;;;;2.95;1.10;;;;;;;14.15;73.12;101132.13;5087348;28;20101;-74
2022/01/08 00:18:17;;;;;;;3.90;1.52;;;;;;;14.12;73.58;101140.06;5087509;28;20067;-74
2022/01/08 00:20:44;;;;;;;10.57;1.92;;;;;;;14.18;73.53;101139.22;5088784;28;20089;-74
2022/01/08 00:23:12;;;;;;;15.25;8.48;;;;;;;14.24;73.53;101129.50;5087008;28;20109;-74
2022/01/08 00:25:41;;;;;;;17.65;8.00;;;;;;;14.31;73.39;101131.34;5088985;28;20040;-75
2022/01/08 00:28:08;;;;;;;13.15;5.45;;;;;;;14.29;73.48;101129.56;5087741;28;20507;-74
2022/01/08 00:30:37;;;;;;;7.03;3.60;;;;;;;14.34;73.42;101130.47;5088162;28;20452;-74
2022/01/08 00:33:04;;;;;;;10.82;5.47;;;;;;;14.43;73.33;101130.59;5086917;28;20690;-75
2022/01/08 00:35:33;;;;;;;5.50;2.33;;;;;;;14.41;73.03;101120.81;5088095;28;20032;-75
2022/01/08 00:38:01;;;;;;;5.95;2.75;;;;;;;14.37;73.05;101109.25;5070617;28;20563;-74
2022/01/08 00:40:28;;;;;;;7.13;3.20;;;;;;;14.28;73.17;101102.13;5071692;28;20113;-74
2022/01/08 00:42:58;;;;;;;4.90;2.60;;;;;;;14.27;73.03;101102.09;5087419;28;20039;-75
2022/01/08 00:45:25;;;;;;;17.73;9.85;;;;;;;14.23;73.09;101095.00;5090577;28;20097;-74
2022/01/08 00:47:53;;;;;;;8.25;3.03;;;;;;;14.20;73.18;101100.28;5090564;28;20465;-74
2022/01/08 00:50:21;;;;;;;7.38;2.97;;;;;;;14.21;73.01;101096.75;5090753;28;20115;-74
2022/01/08 00:52:49;;;;;;;7.78;3.83;;;;;;;14.15;73.05;101087.00;5090658;28;20036;-74
2022/01/08 00:55:17;;;;;;;8.63;3.55;;;;;;;14.07;73.11;101086.06;5092513;28;20123;-74
2022/01/08 00:57:45;;;;;;;4.43;2.78;;;;;;;13.99;73.31;101079.78;5090518;28;20048;-74
2022/01/08 01:00:16;;;;;;;5.50;2.53;;;;;;;13.97;73.53;101078.91;5089853;28;20580;-74
2022/01/08 01:02:44;;;;;;;5.20;2.33;;;;;;;13.95;73.82;101067.38;5071365;28;20037;-75
2022/01/08 01:05:12;;;;;;;5.20;3.13;;;;;;;14.01;73.74;101063.88;5088229;28;20056;-75
2022/01/08 01:07:40;;;;;;;9.13;4.05;;;;;;;13.94;73.83;101065.59;5091696;28;20054;-74
2022/01/08 01:10:10;;;;;;;7.55;4.07;;;;;;;13.93;73.69;101064.72;5090420;28;20044;-74
2022/01/08 01:12:38;;;;;;;9.85;6.50;;;;;;;13.88;73.72;101057.63;5090601;28;20044;-75
2022/01/08 01:15:08;;;;;;;18.60;13.02;;;;;;;13.84;73.75;101056.72;5070506;28;20546;-75
2022/01/08 01:17:38;;;;;;;23.05;12.45;;;;;;;13.80;74.08;101043.41;5088945;27;20502;-74
2022/01/08 01:20:08;;;;;;;15.95;7.40;;;;;;;13.74;74.61;101051.31;5086297;28;20071;-75
2022/01/08 01:22:44;;;;;;;26.08;14.75;;;;;;;13.74;74.96;101040.69;5081857;28;20435;-75
2022/01/08 01:25:15;;;;;;;25.92;13.70;;;;;;;13.83;74.82;101044.31;5089770;28;20040;-74
2022/01/08 01:28:05;;;;;;;11.38;6.50;;;;;;;13.82;74.62;101045.19;5089180;28;20055;-75
2022/01/08 01:41:49;;;;;;;19.35;10.40;;;;;;;13.87;74.87;101035.50;5072898;28;20036;-74
2022/01/08 01:47:02;;;;;;;10.40;5.85;;;;;;;13.76;74.67;101044.25;5089020;28;20044;-74
2022/01/08 01:49:36;;;;;;;9.63;5.10;;;;;;;13.69;75.07;101045.09;5090933;28;20059;-75
2022/01/08 01:52:06;;;;;;;15.40;7.93;;;;;;;13.66;75.17;101043.28;5090807;28;20052;-75
2022/01/08 01:54:36;;;;;;;8.18;4.63;;;;;;;13.69;75.12;101040.69;5089033;28;20119;-74
2022/01/08 01:57:05;;;;;;;8.45;4.50;;;;;;;13.71;75.08;101033.63;5090685;28;20032;-74
2022/01/08 01:59:34;;;;;;;11.60;6.22;;;;;;;13.74;75.08;101030.09;5088707;28;20055;-74
2022/01/08 02:02:06;;;;;;;6.20;3.90;;;;;;;13.82;75.08;101031.91;5089652;28;20119;-74
2022/01/08 02:04:35;;;;;;;8.82;3.47;;;;;;;13.83;74.90;101030.16;5089956;27;20691;-75
2022/01/08 02:07:03;;;;;;;21.88;11.07;;;;;;;13.81;74.86;101018.63;5097446;28;20039;-74
2022/01/08 02:09:33;;;;;;;24.88;15.88;;;;;;;13.83;74.94;101025.75;5110628;28;20560;-74
2022/01/08 02:12:02;;;;;;;9.90;4.63;;;;;;;13.88;74.81;101017.81;5109636;27;20039;-74
2022/01/08 02:14:32;;;;;;;10.52;5.10;;;;;;;13.93;74.42;101016.06;5107151;28;20046;-74
2022/01/08 02:17:00;;;;;;;8.02;3.08;;;;;;;13.95;74.47;101009.00;5090044;28;20549;-74
2022/01/08 02:19:28;;;;;;;6.75;2.83;;;;;;;14.06;74.23;101020.56;5089063;28;20407;-74
2022/01/08 02:21:59;;;;;;;3.97;1.73;;;;;;;14.11;73.90;101000.22;5088485;28;20093;-75
2022/01/08 02:24:28;;;;;;;2.45;1.30;;;;;;;14.16;73.74;101008.22;5088503;28;20121;-75
2022/01/08 02:26:56;;;;;;;3.22;1.70;;;;;;;14.15;73.63;100998.50;5088728;28;20040;-75
2022/01/08 02:29:26;;;;;;;3.50;1.67;;;;;;;14.13;73.56;101002.91;5071079;28;20040;-75
2022/01/08 02:31:56;;;;;;;2.90;1.10;;;;;;;14.16;73.46;100995.84;5089852;28;20063;-74
2022/01/08 02:34:25;;;;;;;6.13;1.35;;;;;;;14.20;73.21;100999.38;5088665;28;20067;-75
2022/01/08 02:36:53;;;;;;;3.15;1.40;;;;;;;14.19;73.10;100998.50;5089235;28;20047;-75
2022/01/08 02:39:22;;;;;;;6.85;1.98;;;;;;;14.21;73.08;100993.19;5088305;28;20036;-74
2022/01/08 02:41:54;;;;;;;3.35;1.58;;;;;;;14.22;72.99;100992.31;5089323;28;20044;-74
2022/01/08 02:44:24;;;;;;;7.13;2.25;;;;;;;14.22;72.84;100992.31;5089365;28;20499;-75
2022/01/08 02:46:51;;;;;;;11.23;6.30;;;;;;;14.23;72.79;100995.00;5090257;28;20032;-74
2022/01/08 02:49:21;;;;;;;7.53;4.10;;;;;;;14.21;72.84;100985.22;5088117;28;20040;-74
2022/01/08 02:51:49;;;;;;;8.93;5.78;;;;;;;14.14;72.86;100979.00;5089569;28;20040;-74
2022/01/08 02:54:17;;;;;;;9.05;3.38;;;;;;;13.99;73.43;100981.59;5088537;28;20040;-74
2022/01/08 02:56:48;;;;;;;12.18;7.65;;;;;;;13.89;73.90;100985.97;5089951;28;20446;-74
2022/01/08 02:59:16;;;;;;;38.25;29.10;;;;;;;13.83;74.05;100982.41;5088403;28;20081;-74
2022/01/08 03:01:44;;;;;;;15.65;12.75;;;;;;;13.87;74.18;100982.41;5090065;28;20044;-74
2022/01/08 03:04:12;;;;;;;30.67;22.92;;;;;;;13.94;73.88;100985.97;5087993;28;20040;-74
2022/01/08 03:06:40;;;;;;;27.85;21.52;;;;;;;14.01;73.81;100993.09;5088942;28;20040;-75
2022/01/08 03:09:08;;;;;;;29.83;20.42;;;;;;;14.00;73.86;100988.66;5089471;28;20127;-75
2022/01/08 03:11:38;;;;;;;10.45;5.30;;;;;;;14.05;73.73;100989.56;5087405;28;20161;-75
2022/01/08 03:14:07;;;;;;;8.13;4.30;;;;;;;14.06;73.55;100996.66;5087460;28;20043;-74
2022/01/08 03:16:35;;;;;;;19.88;10.55;;;;;;;14.08;73.48;100989.59;5089128;28;20131;-74
2022/01/08 03:19:09;;;;;;;22.20;9.80;;;;;;;14.16;73.48;100994.97;5070652;28;20071;-74
2022/01/08 03:21:41;;;;;;;16.13;7.45;;;;;;;14.22;73.33;100995.88;5087759;28;20044;-74
2022/01/08 03:24:14;;;;;;;24.55;9.48;;;;;;;14.25;73.20;100993.22;5088093;28;20086;-75
2022/01/08 03:26:42;;;;;;;5.78;2.95;;;;;;;14.25;73.18;100998.53;5070492;28;20044;-75
2022/01/08 03:29:11;;;;;;;4.50;2.50;;;;;;;14.15;73.18;100998.50;5087141;28;20036;-74
2022/01/08 03:31:39;;;;;;;4.65;2.42;;;;;;;14.08;73.38;100992.25;5087853;28;20055;-74
2022/01/08 03:34:07;;;;;;;5.70;2.22;;;;;;;14.06;73.50;101004.63;5088668;28;20550;-75
2022/01/08 03:36:35;;;;;;;7.63;2.67;;;;;;;14.05;73.79;101000.19;5088861;28;20055;-75
2022/01/08 03:39:03;;;;;;;9.60;5.13;;;;;;;14.08;73.88;100997.56;5087948;28;20036;-75
2022/01/08 03:41:31;;;;;;;8.32;5.57;;;;;;;14.11;73.83;101000.22;5070263;28;20068;-74
2022/01/08 03:43:58;;;;;;;7.95;4.78;;;;;;;14.15;73.73;101004.69;5087161;28;20044;-74
2022/01/08 03:46:32;;;;;;;11.70;6.13;;;;;;;14.18;73.72;101007.34;5088955;28;20381;-75
2022/01/08 03:49:22;;;;;;;14.55;6.85;;;;;;;14.19;73.58;101000.25;5087922;28;20040;-74
2022/01/08 03:51:50;;;;;;;11.65;6.32;;;;;;;14.21;73.53;101001.16;5088574;28;20063;-74
2022/01/08 03:54:19;;;;;;;7.80;2.90;;;;;;;14.12;73.45;101011.72;5089112;28;20043;-74
2022/01/08 03:56:47;;;;;;;6.18;2.85;;;;;;;14.04;73.59;101000.22;5087177;28;20044;-74
2022/01/08 03:59:14;;;;;;;6.95;3.38;;;;;;;13.96;73.69;101000.16;5073203;28;20564;-74
2022/01/08 04:01:43;;;;;;;7.53;3.55;;;;;;;13.91;73.81;100996.59;5067224;28;20090;-74
2022/01/08 04:04:11;;;;;;;10.95;4.72;;;;;;;13.91;73.77;101001.91;5067631;28;20400;-74
2022/01/08 04:06:38;;;;;;;10.05;4.53;;;;;;;13.88;73.88;100992.16;5068645;28;20416;-74
2022/01/08 04:09:06;;;;;;;9.63;4.95;;;;;;;13.86;73.99;100990.34;5068828;28;20114;-74
2022/01/08 04:11:34;;;;;;;15.48;8.20;;;;;;;13.83;74.16;100999.22;5089643;28;20040;-75
2022/01/08 04:14:22;;;;;;;9.82;5.78;;;;;;;13.87;74.22;101000.09;5090184;28;20051;-74
2022/01/08 04:16:53;;;;;;;16.38;9.93;;;;;;;13.90;74.13;100997.47;5091100;28;20147;-74
2022/01/08 04:19:20;;;;;;;6.43;3.50;;;;;;;13.86;73.92;101000.97;5091435;28;20437;-74
2022/01/08 04:22:02;;;;;;;6.60;3.53;;;;;;;13.74;74.14;101007.09;5092383;28;20516;-75
2022/01/08 04:24:30;;;;;;;8.43;3.20;;;;;;;13.69;74.35;100995.56;5089043;28;20131;-74
2022/01/08 04:26:57;;;;;;;4.70;2.75;;;;;;;13.67;74.38;100994.66;5092750;28;20048;-74
2022/01/08 04:29:25;;;;;;;8.25;3.60;;;;;;;13.69;74.30;100989.38;5092074;28;20125;-75
2022/01/08 04:31:54;;;;;;;7.35;2.92;;;;;;;13.68;74.37;100984.94;5091137;28;20118;-74
2022/01/08 04:34:21;;;;;;;13.00;6.93;;;;;;;13.68;74.44;100988.50;5107842;27;20092;-75
2022/01/08 04:36:49;;;;;;;5.95;3.42;;;;;;;13.59;74.52;100987.56;5102518;27;20376;-74
2022/01/08 04:39:16;;;;;;;6.20;2.63;;;;;;;13.51;74.57;100987.50;5093078;28;20043;-74
2022/01/08 04:41:44;;;;;;;7.00;3.65;;;;;;;13.49;74.59;100990.13;5092570;28;20056;-74
2022/01/08 04:44:12;;;;;;;4.80;2.63;;;;;;;13.42;74.57;100988.31;5090772;28;20055;-74
2022/01/08 04:46:41;;;;;;;6.05;2.70;;;;;;;13.37;74.90;100994.47;5091558;28;20036;-74
2022/01/08 04:49:11;;;;;;;8.32;4.38;;;;;;;13.38;75.18;100986.53;5090880;28;20055;-74
2022/01/08 04:51:38;;;;;;;4.22;2.75;;;;;;;13.36;75.26;100987.38;5089824;28;20048;-75
2022/01/08 04:54:06;;;;;;;7.10;3.25;;;;;;;13.32;75.17;100978.53;5092310;28;20097;-75
2022/01/08 04:56:34;;;;;;;7.50;3.08;;;;;;;13.28;75.01;100970.50;5108073;27;20047;-75
2022/01/08 04:59:01;;;;;;;4.78;2.85;;;;;;;13.29;75.08;100972.28;5099219;27;20510;-73
2022/01/08 05:01:29;;;;;;;6.78;2.92;;;;;;;13.31;75.64;100978.50;5091479;28;20454;-74
2022/01/08 05:03:57;;;;;;;7.57;3.33;;;;;;;13.39;75.89;100971.50;5089435;28;20555;-74
2022/01/08 05:06:47;;;;;;;10.98;3.92;;;;;;;13.49;76.09;100966.25;5074843;28;20048;-74
2022/01/08 05:09:14;;;;;;;8.35;3.05;;;;;;;13.53;75.84;100960.09;5071198;28;20119;-74
2022/01/08 05:11:42;;;;;;;9.02;4.53;;;;;;;13.46;75.59;100967.97;5071346;28;20123;-74
2022/01/08 05:14:11;;;;;;;11.85;5.65;;;;;;;13.41;75.64;100964.41;5072994;28;20052;-75
2022/01/08 05:16:39;;;;;;;9.02;4.15;;;;;;;13.41;75.73;100967.06;5080771;28;20097;-75
2022/01/08 05:19:07;;;;;;;9.15;4.25;;;;;;;13.43;75.66;100963.56;5091144;28;20040;-74
2022/01/08 05:21:37;;;;;;;8.38;4.38;;;;;;;13.44;75.67;100964.47;5089652;28;20044;-74
2022/01/08 05:24:07;;;;;;;7.22;4.03;;;;;;;13.39;75.82;100963.53;5084632;28;20032;-74
2022/01/08 05:26:35;;;;;;;6.60;3.78;;;;;;;13.30;75.95;100963.47;5072823;28;20124;-74
2022/01/08 05:29:02;;;;;;;10.77;4.13;;;;;;;13.29;76.19;100957.28;5090670;28;20384;-74
2022/01/08 05:31:30;;;;;;;7.03;3.63;;;;;;;13.29;76.10;100959.03;5089966;28;20690;-75
2022/01/08 05:33:58;;;;;;;12.45;7.07;;;;;;;13.27;76.52;100945.75;5080580;28;20443;-75
2022/01/08 05:36:26;;;;;;;9.98;6.50;;;;;;;13.39;76.88;100944.97;5089222;28;20040;-74
2022/01/08 05:38:54;;;;;;;11.15;5.97;;;;;;;13.38;76.75;100938.78;5091127;28;20032;-74
2022/01/08 05:41:23;;;;;;;12.18;7.13;;;;;;;13.43;76.89;100939.69;5090507;28;20032;-74
2022/01/08 05:43:50;;;;;;;10.25;5.45;;;;;;;13.47;76.83;100935.28;5091047;28;20039;-75
2022/01/08 05:46:18;;;;;;;14.75;8.77;;;;;;;13.51;77.06;100930.03;5090836;28;20130;-74
2022/01/08 05:48:45;;;;;;;14.63;7.50;;;;;;;13.64;77.38;100931.00;5090930;28;20044;-74
2022/01/08 05:51:13;;;;;;;10.23;6.45;;;;;;;13.76;77.39;100930.16;5090481;28;20048;-74
2022/01/08 05:53:41;;;;;;;12.93;6.50;;;;;;;13.88;77.63;100927.56;5100710;28;20093;-75
2022/01/08 05:56:08;;;;;;;17.33;8.25;;;;;;;13.99;77.65;100928.50;5092582;28;20118;-76
2022/01/08 05:58:38;;;;;;;16.17;9.30;;;;;;;14.13;77.50;100929.44;5090567;28;20036;-74
2022/01/08 06:01:06;;;;;;;19.20;8.65;;;;;;;14.22;77.41;100921.53;5084438;28;20035;-74
2022/01/08 06:03:33;;;;;;;18.58;9.02;;;;;;;14.29;77.20;100925.97;5089040;28;20131;-74
2022/01/08 06:06:01;;;;;;;15.77;8.52;;;;;;;14.35;77.04;100923.34;5089892;28;20048;-74
2022/01/08 06:08:28;;;;;;;16.40;9.52;;;;;;;14.46;76.75;100922.50;5106130;28;20407;-74
2022/01/08 06:10:56;;;;;;;13.75;6.60;;;;;;;14.47;76.56;100935.78;5089911;28;20109;-73
2022/01/08 06:13:24;;;;;;;19.83;9.27;;;;;;;14.55;76.45;100936.69;5089867;28;20093;-75
2022/01/08 06:15:53;;;;;;;15.60;9.13;;;;;;;14.61;76.09;100931.41;5088786;28;20115;-74
2022/01/08 06:18:21;;;;;;;11.38;6.32;;;;;;;14.68;75.89;100934.94;5090024;28;20040;-74
2022/01/08 06:20:48;;;;;;;20.10;9.30;;;;;;;14.75;75.52;100932.31;5088551;28;20092;-74
2022/01/08 06:23:16;;;;;;;16.92;7.47;;;;;;;14.80;75.37;100932.31;5089731;28;20064;-74
2022/01/08 06:25:43;;;;;;;19.17;8.52;;;;;;;14.83;75.28;100934.97;5090308;28;20117;-74
2022/01/08 06:28:11;;;;;;;20.20;9.30;;;;;;;14.93;75.20;100941.16;5088252;28;20058;-74
2022/01/08 06:30:39;;;;;;;16.25;8.57;;;;;;;14.98;75.03;100939.41;5088645;28;20948;-74
2022/01/08 06:33:08;;;;;;;15.57;7.38;;;;;;;15.10;74.65;100942.06;5089272;28;20040;-74
2022/01/08 06:35:36;;;;;;;16.95;8.23;;;;;;;15.22;74.28;100941.19;5088569;28;20441;-74
2022/01/08 06:38:04;;;;;;;14.40;8.57;;;;;;;15.31;73.27;100942.03;5089974;28;20446;-74
2022/01/08 06:40:31;;;;;;;18.55;9.52;;;;;;;15.59;72.96;100937.63;5088982;28;20102;-74
2022/01/08 06:42:59;;;;;;;13.85;8.25;;;;;;;15.68;72.49;100921.63;5089683;28;20039;-74
2022/01/08 06:45:27;;;;;;;14.98;7.35;;;;;;;16.00;72.15;100924.19;5089762;28;20040;-75
2022/01/08 06:47:54;;;;;;;12.63;5.47;;;;;;;16.31;71.31;100917.81;5088256;28;20032;-74
2022/01/08 06:50:24;;;;;;;15.15;8.43;;;;;;;16.36;69.68;100917.78;5087992;28;20055;-74
2022/01/08 06:52:51;;;;;;;12.95;7.75;;;;;;;16.24;69.20;100918.75;5089044;28;20039;-74
2022/01/08 06:55:19;;;;;;;12.20;6.57;;;;;;;16.28;69.20;100914.25;5088776;28;20056;-74
2022/01/08 06:57:47;;;;;;;13.45;7.55;;;;;;;16.49;69.01;100899.94;5088670;28;20044;-74
2022/01/08 07:00:15;;;;;;;14.93;9.57;;;;;;;16.55;67.88;100900.78;5088277;28;20040;-74
2022/01/08 07:02:43;;;;;;;14.65;7.47;;;;;;;16.56;67.55;100907.00;5089882;28;20051;-74
2022/01/08 07:05:11;;;;;;;13.55;7.82;;;;;;;16.56;67.25;100902.56;5088133;28;20113;-74
2022/01/08 07:07:40;;;;;;;12.73;7.10;;;;;;;16.62;66.93;100893.66;5087346;28;20100;-74
2022/01/08 07:10:09;;;;;;;14.88;8.80;;;;;;;16.87;66.17;100894.38;5089076;28;20116;-73
2022/01/08 07:12:37;;;;;;;12.02;7.93;;;;;;;17.07;64.97;100890.63;5089485;28;20054;-74
2022/01/08 07:15:05;;;;;;;15.10;8.90;;;;;;;17.28;63.95;100894.88;5089252;28;20079;-74
2022/01/08 07:17:33;;;;;;;16.42;8.73;;;;;;;17.24;63.21;100887.81;5087325;28;20051;-74
2022/01/08 07:20:00;;;;;;;13.23;7.30;;;;;;;17.32;63.65;100888.63;5089317;28;20056;-74
2022/01/08 07:22:29;;;;;;;13.07;9.63;;;;;;;17.30;63.23;100893.09;5087878;28;20036;-74
2022/01/08 07:24:58;;;;;;;16.27;7.93;;;;;;;17.12;63.48;100894.16;5086989;28;20135;-73
2022/01/08 07:27:30;;;;;;;16.67;10.18;;;;;;;16.95;64.16;100887.19;5085794;28;20115;-74
2022/01/08 07:29:58;;;;;;;12.07;7.30;;;;;;;17.18;64.34;100895.00;5088207;28;20032;-74
2022/01/08 07:32:47;;;;;;;13.73;7.97;;;;;;;17.25;64.06;100888.72;5088932;28;20040;-74
2022/01/08 07:35:16;;;;;;;12.70;7.90;;;;;;;17.40;64.01;100878.75;5069323;28;20162;-73
2022/01/08 07:37:44;;;;;;;15.27;8.52;;;;;;;17.60;63.73;100880.31;5062965;28;20506;-74
2022/01/08 07:40:14;;;;;;;15.68;8.40;;;;;;;17.63;63.81;100873.19;5072239;28;20043;-74
2022/01/08 07:42:42;;;;;;;12.45;5.72;;;;;;;17.67;63.53;100868.69;5073165;28;20039;-74
2022/01/08 07:45:12;;;;;;;12.57;8.32;;;;;;;17.57;63.72;100864.34;5078711;28;20093;-74
2022/01/08 07:47:40;;;;;;;11.35;6.95;;;;;;;17.45;63.70;100860.03;5076536;28;20102;-73
2022/01/08 07:50:09;;;;;;;13.45;7.05;;;;;;;17.79;63.60;100857.88;5072514;28;20119;-74
2022/01/08 07:52:37;;;;;;;13.88;8.73;;;;;;;18.15;62.74;100853.84;5070017;28;20064;-74
2022/01/08 07:55:05;;;;;;;20.70;10.50;;;;;;;18.20;61.96;100852.88;5072950;28;20056;-74
2022/01/08 07:57:34;;;;;;;10.55;5.95;;;;;;;17.93;61.71;100856.78;5072887;28;20036;-73
2022/01/08 08:00:02;;;;;;;15.15;8.68;;;;;;;17.72;62.05;100850.84;5072618;28;20057;-74
2022/01/08 08:02:39;;;;;;;14.32;8.20;;;;;;;17.88;62.33;100855.09;5071799;28;20052;-74
2022/01/08 08:05:07;;;;;;;13.70;8.50;;;;;;;18.29;60.81;100851.84;5062429;28;20452;-73
2022/01/08 08:07:37;;;;;;;13.38;6.13;;;;;;;18.67;60.50;100853.97;5072060;28;20052;-74
2022/01/08 08:10:07;;;;;;;13.32;7.90;;;;;;;18.99;58.59;100850.75;5070932;28;20122;-74
2022/01/08 08:12:36;;;;;;;10.57;5.97;;;;;;;19.24;58.88;100862.78;5070984;28;20051;-73
2022/01/08 08:15:05;;;;;;;14.55;7.25;;;;;;;19.40;57.66;100853.56;5090923;28;20068;-74
2022/01/08 08:17:34;;;;;;;12.20;7.82;;;;;;;19.17;57.12;100870.94;5092375;28;20080;-74
2022/01/08 08:20:02;;;;;;;13.50;6.85;;;;;;;18.97;58.13;100869.50;5092623;28;20124;-74
2022/01/08 08:22:29;;;;;;;13.15;7.30;;;;;;;18.81;57.84;100867.13;5091508;28;20440;-74
2022/01/08 08:24:57;;;;;;;13.75;8.07;;;;;;;18.55;58.33;100871.09;5092676;28;20081;-74
2022/01/08 08:27:25;;;;;;;12.07;7.07;;;;;;;18.58;58.96;100868.34;5090480;28;20276;-74
2022/01/08 08:29:54;;;;;;;11.68;6.15;;;;;;;18.82;58.99;100867.09;5092135;28;20044;-74
2022/01/08 08:32:21;;;;;;;14.57;8.32;;;;;;;18.94;59.29;100863.34;5091772;28;20399;-74
2022/01/08 08:34:50;;;;;;;15.20;9.38;;;;;;;19.27;59.39;100853.81;5090855;28;20089;-73
2022/01/08 08:37:18;;;;;;;10.30;7.00;;;;;;;19.62;58.51;100843.38;5093078;28;20043;-74
2022/01/08 08:39:45;;;;;;;13.68;8.38;;;;;;;19.72;57.94;100842.25;5091064;28;20047;-73
2022/01/08 08:42:13;;;;;;;18.35;11.65;;;;;;;19.42;58.08;100849.06;5092348;28;20119;-74
2022/01/08 08:44:41;;;;;;;27.05;14.73;;;;;;;19.28;58.85;100845.78;5090529;28;20097;-73
2022/01/08 08:47:10;;;;;;;21.00;10.68;;;;;;;19.25;58.50;100852.97;5092136;28;20036;-73
2022/01/08 08:49:37;;;;;;;10.77;7.63;;;;;;;19.45;58.60;100853.47;5090366;28;20089;-74
2022/01/08 08:52:06;;;;;;;15.52;8.57;;;;;;;19.64;57.44;100849.53;5090134;28;20424;-74
2022/01/08 08:54:34;;;;;;;78.50;47.00;;;;;;;19.53;57.87;100845.31;5091915;28;20428;-74
2022/01/08 08:57:01;;;;;;;23.20;16.08;;;;;;;19.38;58.39;100842.00;5089640;28;20084;-73
2022/01/08 08:59:29;;;;;;;17.10;9.82;;;;;;;19.31;59.06;100826.06;5090868;28;20040;-74
2022/01/08 09:01:57;;;;;;;27.77;19.10;;;;;;;19.28;59.36;100820.78;5090780;28;20058;-74
2022/01/08 09:04:26;;;;;;;17.95;12.05;;;;;;;19.33;60.10;100826.94;5091512;28;20400;-73
2022/01/08 09:06:57;;;;;;;12.00;7.18;;;;;;;19.36;58.73;100810.81;5090051;28;20052;-73
2022/01/08 09:09:24;;;;;;;12.73;7.13;;;;;;;19.34;58.21;100810.84;5091854;28;20040;-73
2022/01/08 09:11:52;;;;;;;21.48;9.52;;;;;;;19.34;57.77;100812.66;5090497;28;20044;-73
2022/01/08 09:14:20;;;;;;;26.25;16.92;;;;;;;19.32;57.83;100806.44;5090581;28;20090;-74
2022/01/08 09:16:50;;;;;;;16.23;8.45;;;;;;;19.24;57.24;100803.88;5091858;28;20063;-74
2022/01/08 09:19:19;;;;;;;14.68;8.95;;;;;;;19.13;57.68;100802.34;5090277;28;20067;-74
2022/01/08 09:21:48;;;;;;;18.60;13.30;;;;;;;19.01;57.09;100806.13;5089825;28;20102;-74
2022/01/08 09:24:18;;;;;;;18.52;12.23;;;;;;;18.98;57.45;100806.16;5066004;28;20040;-74
2022/01/08 09:26:46;;;;;;;19.83;13.02;;;;;;;18.96;57.99;100822.28;5071367;28;20090;-74
2022/01/08 09:29:14;;;;;;;14.82;8.43;;;;;;;18.98;57.61;100819.53;5070822;28;20086;-74
2022/01/08 09:31:41;;;;;;;32.00;17.80;;;;;;;18.95;57.00;100811.59;5075738;28;20509;-74
2022/01/08 09:34:09;;;;;;;40.38;24.05;;;;;;;18.95;57.21;100819.63;5089962;28;20105;-74
2022/01/08 09:36:38;;;;;;;87.10;45.15;;;;;;;18.97;57.64;100813.31;5091129;28;20048;-75
2022/01/08 09:39:09;;;;;;;59.45;37.08;;;;;;;18.97;57.46;100816.00;5089125;28;20098;-74
2022/01/08 09:41:37;;;;;;;32.08;21.02;;;;;;;18.96;57.80;100806.22;5090132;28;20568;-74
2022/01/08 09:44:05;;;;;;;13.75;9.40;;;;;;;18.98;57.78;100804.38;5091174;28;20064;-74
2022/01/08 09:46:33;;;;;;;24.13;13.40;;;;;;;18.89;57.87;100801.00;5087408;28;20050;-74
2022/01/08 09:49:01;;;;;;;20.67;11.80;;;;;;;18.83;58.23;100804.69;5089792;28;20042;-75
2022/01/08 09:51:29;;;;;;;15.70;7.97;;;;;;;18.86;58.43;100809.97;5087639;28;20659;-74
2022/01/08 09:53:56;;;;;;;20.80;9.57;;;;;;;18.87;58.53;100802.81;5089589;28;20040;-73
2022/01/08 09:56:28;;;;;;;16.85;7.50;;;;;;;18.90;58.45;100806.34;5087112;28;20036;-73
2022/01/08 09:58:56;;;;;;;15.75;8.30;;;;;;;18.89;58.58;100791.19;5079978;28;20040;-74
2022/01/08 10:01:26;;;;;;;13.05;6.80;;;;;;;18.95;58.40;100791.06;5092443;28;20059;-74
2022/01/08 10:03:54;;;;;;;17.92;8.07;;;;;;;18.98;58.15;100795.47;5074744;28;20040;-74
2022/01/08 10:06:26;;;;;;;17.38;11.15;;;;;;;19.04;57.77;100784.66;5089604;28;20106;-73
2022/01/08 10:08:54;;;;;;;11.52;6.15;;;;;;;18.95;58.06;100780.38;5084468;28;20039;-74
2022/01/08 10:11:26;;;;;;;13.70;8.07;;;;;;;18.88;58.12;100788.53;5086527;28;20149;-74
2022/01/08 10:14:02;;;;;;;13.50;7.72;;;;;;;18.87;58.38;100779.63;5088918;28;20075;-73
2022/01/08 10:19:25;;;;;;;15.43;7.68;;;;;;;18.88;58.07;100769.81;5088691;28;20047;-74
2022/01/08 10:21:54;;;;;;;9.35;5.00;;;;;;;18.86;58.18;100760.91;5096343;28;20147;-74
2022/01/08 10:24:26;;;;;;;11.63;5.47;;;;;;;18.89;57.62;100753.75;5088722;28;20060;-74
2022/01/08 10:27:03;;;;;;;14.13;6.18;;;;;;;18.91;57.45;100753.69;5089385;28;20484;-74
2022/01/08 10:29:31;;;;;;;12.40;6.57;;;;;;;18.95;56.97;100744.72;5088126;28;20036;-73
2022/01/08 10:31:59;;;;;;;9.38;6.10;;;;;;;18.95;56.87;100740.25;5092020;28;20040;-73
2022/01/08 10:34:29;;;;;;;10.30;6.38;;;;;;;19.00;56.74;100741.03;5080009;28;20131;-74
2022/01/08 10:37:02;;;;;;;9.35;5.25;;;;;;;19.02;56.99;100731.19;5088980;28;20403;-73
2022/01/08 10:39:31;;;;;;;11.00;6.40;;;;;;;19.14;57.43;100729.16;5089621;28;20063;-74
2022/01/08 10:42:02;;;;;;;12.63;6.40;;;;;;;19.33;56.63;100717.19;5088862;28;20036;-74
2022/01/08 10:44:34;;;;;;;9.50;5.70;;;;;;;19.24;56.26;100720.03;5095719;28;20567;-73
2022/01/08 10:47:06;;;;;;;13.30;8.02;;;;;;;19.39;55.86;100714.38;5088966;28;20054;-73
2022/01/08 10:49:35;;;;;;;10.75;6.13;;;;;;;19.58;55.61;100726.47;5088626;28;20044;-77
2022/01/08 10:52:05;;;;;;;11.70;7.75;;;;;;;19.77;55.80;100735.84;5089507;28;20036;-73
2022/01/08 10:54:35;;;;;;;13.05;6.90;;;;;;;19.94;55.68;100722.09;5087343;28;20048;-73
2022/01/08 10:57:07;;;;;;;17.95;9.32;;;;;;;20.03;55.66;100726.34;5083550;28;20040;-74
2022/01/08 10:59:35;;;;;;;23.30;13.50;;;;;;;20.15;55.57;100726.06;5087402;28;20641;-73
2022/01/08 11:02:04;;;;;;;12.02;7.18;;;;;;;20.11;54.02;100725.25;5087843;28;20066;-73
2022/01/08 11:04:36;;;;;;;15.13;8.63;;;;;;;20.03;54.51;100721.84;5087399;28;20120;-74
2022/01/08 11:07:05;;;;;;;13.32;8.07;;;;;;;19.96;54.88;100724.72;5088733;28;20119;-74
2022/01/08 11:09:35;;;;;;;23.65;16.15;;;;;;;19.86;54.75;100719.59;5080888;28;20425;-74
2022/01/08 11:12:06;;;;;;;16.20;8.00;;;;;;;19.68;54.41;100716.44;5089025;28;20101;-73
2022/01/08 11:17:37;;;;;;;55.47;37.88;;;;;;;19.41;55.36;100709.88;5083848;28;20073;-74
2022/01/08 11:20:08;;;;;;;20.02;10.73;;;;;;;19.23;55.32;100716.47;5087747;28;20040;-74
2022/01/08 11:22:38;;;;;;;13.63;7.85;;;;;;;19.09;55.35;100715.91;5090586;28;20125;-74
2022/01/08 11:25:09;;;;;;;18.77;12.52;;;;;;;18.96;55.62;100712.59;5082530;28;20085;-73
2022/01/08 11:27:45;;;;;;;10.27;6.72;;;;;;;18.82;56.20;100711.97;5086945;28;20048;-73
2022/01/08 11:30:20;;;;;;;13.50;5.82;;;;;;;18.68;56.60;100706.88;5093993;28;20040;-73
2022/01/08 11:32:50;;;;;;;14.75;7.22;;;;;;;18.56;57.18;100707.09;5093879;28;20040;-74
2022/01/08 11:35:21;;;;;;;15.23;8.48;;;;;;;18.48;57.87;100714.31;5088071;28;20115;-73
2022/01/08 11:37:50;;;;;;;12.85;7.20;;;;;;;18.38;58.03;100710.03;5092707;28;20539;-73
2022/01/08 11:40:20;;;;;;;12.45;6.72;;;;;;;18.32;58.02;100716.38;5083072;27;20040;-73
2022/01/08 11:42:49;;;;;;;32.78;17.48;;;;;;;18.26;58.16;100713.81;5087776;28;20085;-73
2022/01/08 11:45:21;;;;;;;58.80;30.48;;;;;;;18.28;58.38;100717.34;5086173;28;20051;-73
2022/01/08 11:47:52;;;;;;;61.75;28.30;;;;;;;18.28;58.57;100717.34;5083740;28;20404;-73